sensor_id;sensor_type;location;lat;lon;timestamp;P1;durP1;ratioP1;P2;durP2;ratioP2
12956;SDS011;6543;48.836;10.092;2023-11-22T00:00:11;2.50;;;2.30;;
12956;SDS011;6543;48.836;10.092;2023-11-22T00:02:39;2.67;;;2.47;;
12956;SDS011;6543;48.836;10.092;2023-11-22T00:05:08;2.97;;;2.53;;
12956;SDS011;6543;48.836;10.092;2023-11-22T00:07:36;6.13;;;2.63;;
12956;SDS011;6543;48.836;10.092;2023-11-22T00:10:03;3.40;;;2.87;;
12956;SDS011;6543;48.836;10.092;2023-11-22T00:12:30;3.90;;;2.57;;
12956;SDS011;6543;48.836;10.092;2023-11-22T00:15:02;4.00;;;3.13;;
12956;SDS011;6543;48.836;10.092;2023-11-22T00:17:30;3.30;;;3.00;;
12956;SDS011;6543;48.836;10.092;2023-11-22T00:19:57;4.27;;;3.43;;
12956;SDS011;6543;48.836;10.092;2023-11-22T00:22:29;3.90;;;3.13;;
12956;SDS011;6543;48.836;10.092;2023-11-22T00:24:57;5.43;;;3.70;;
12956;SDS011;6543;48.836;10.092;2023-11-22T00:27:24;5.77;;;3.40;;
12956;SDS011;6543;48.836;10.092;2023-11-22T00:29:51;3.40;;;2.83;;
12956;SDS011;6543;48.836;10.092;2023-11-22T00:32:18;6.23;;;3.33;;
12956;SDS011;6543;48.836;10.092;2023-11-22T00:34:45;4.47;;;3.30;;
12956;SDS011;6543;48.836;10.092;2023-11-22T00:37:12;3.47;;;3.03;;
12956;SDS011;6543;48.836;10.092;2023-11-22T00:39:40;4.53;;;3.57;;
12956;SDS011;6543;48.836;10.092;2023-11-22T00:42:07;3.40;;;3.10;;
12956;SDS011;6543;48.836;10.092;2023-11-22T00:44:34;4.87;;;3.93;;
12956;SDS011;6543;48.836;10.092;2023-11-22T00:47:01;3.70;;;3.13;;
12956;SDS011;6543;48.836;10.092;2023-11-22T00:49:28;4.43;;;3.57;;
12956;SDS011;6543;48.836;10.092;2023-11-22T00:51:54;4.23;;;3.70;;
12956;SDS011;6543;48.836;10.092;2023-11-22T00:54:21;4.67;;;3.63;;
12956;SDS011;6543;48.836;10.092;2023-11-22T00:56:49;4.60;;;3.90;;
12956;SDS011;6543;48.836;10.092;2023-11-22T00:59:16;4.73;;;3.30;;
12956;SDS011;6543;48.836;10.092;2023-11-22T01:01:44;4.93;;;3.63;;
12956;SDS011;6543;48.836;10.092;2023-11-22T01:04:11;5.47;;;4.00;;
12956;SDS011;6543;48.836;10.092;2023-11-22T01:06:38;4.50;;;3.50;;
12956;SDS011;6543;48.836;10.092;2023-11-22T01:09:06;4.17;;;3.50;;
12956;SDS011;6543;48.836;10.092;2023-11-22T01:11:33;4.90;;;4.20;;
12956;SDS011;6543;48.836;10.092;2023-11-22T01:14:01;4.30;;;3.47;;
12956;SDS011;6543;48.836;10.092;2023-11-22T01:16:28;6.03;;;4.47;;
12956;SDS011;6543;48.836;10.092;2023-11-22T01:18:55;5.43;;;4.47;;
12956;SDS011;6543;48.836;10.092;2023-11-22T01:21:22;7.27;;;2.63;;
12956;SDS011;6543;48.836;10.092;2023-11-22T01:23:48;6.60;;;4.77;;
12956;SDS011;6543;48.836;10.092;2023-11-22T01:26:15;5.63;;;4.87;;
12956;SDS011;6543;48.836;10.092;2023-11-22T01:28:42;6.57;;;5.03;;
12956;SDS011;6543;48.836;10.092;2023-11-22T01:31:12;8.40;;;5.13;;
12956;SDS011;6543;48.836;10.092;2023-11-22T01:33:39;6.57;;;4.40;;
12956;SDS011;6543;48.836;10.092;2023-11-22T01:36:06;5.07;;;4.27;;
12956;SDS011;6543;48.836;10.092;2023-11-22T01:38:34;5.87;;;4.17;;
12956;SDS011;6543;48.836;10.092;2023-11-22T01:41:00;6.10;;;4.00;;
12956;SDS011;6543;48.836;10.092;2023-11-22T01:43:27;6.17;;;4.93;;
12956;SDS011;6543;48.836;10.092;2023-11-22T01:45:54;5.63;;;4.37;;
12956;SDS011;6543;48.836;10.092;2023-11-22T01:48:23;5.23;;;4.00;;
12956;SDS011;6543;48.836;10.092;2023-11-22T01:50:50;6.53;;;4.10;;
12956;SDS011;6543;48.836;10.092;2023-11-22T01:53:17;6.23;;;4.67;;
12956;SDS011;6543;48.836;10.092;2023-11-22T01:55:46;4.50;;;3.57;;
12956;SDS011;6543;48.836;10.092;2023-11-22T01:58:14;6.33;;;3.67;;
12956;SDS011;6543;48.836;10.092;2023-11-22T02:00:42;4.33;;;3.90;;
12956;SDS011;6543;48.836;10.092;2023-11-22T02:03:14;3.90;;;3.50;;
12956;SDS011;6543;48.836;10.092;2023-11-22T02:05:42;4.70;;;3.17;;
12956;SDS011;6543;48.836;10.092;2023-11-22T02:08:10;5.37;;;3.73;;
12956;SDS011;6543;48.836;10.092;2023-11-22T02:10:38;4.40;;;3.50;;
12956;SDS011;6543;48.836;10.092;2023-11-22T02:13:05;5.20;;;3.97;;
12956;SDS011;6543;48.836;10.092;2023-11-22T02:15:33;4.37;;;3.60;;
12956;SDS011;6543;48.836;10.092;2023-11-22T02:18:00;5.47;;;3.80;;
12956;SDS011;6543;48.836;10.092;2023-11-22T02:20:27;3.67;;;3.10;;
12956;SDS011;6543;48.836;10.092;2023-11-22T02:22:56;4.83;;;4.30;;
12956;SDS011;6543;48.836;10.092;2023-11-22T02:25:24;4.87;;;4.10;;
12956;SDS011;6543;48.836;10.092;2023-11-22T02:27:50;9.77;;;4.60;;
12956;SDS011;6543;48.836;10.092;2023-11-22T02:30:17;5.47;;;4.30;;
12956;SDS011;6543;48.836;10.092;2023-11-22T02:32:44;5.30;;;4.23;;
12956;SDS011;6543;48.836;10.092;2023-11-22T02:35:11;4.57;;;3.77;;
12956;SDS011;6543;48.836;10.092;2023-11-22T02:37:38;4.13;;;3.53;;
12956;SDS011;6543;48.836;10.092;2023-11-22T02:40:05;4.80;;;3.70;;
12956;SDS011;6543;48.836;10.092;2023-11-22T02:42:42;3.30;;;2.83;;
12956;SDS011;6543;48.836;10.092;2023-11-22T02:45:09;4.93;;;4.20;;
12956;SDS011;6543;48.836;10.092;2023-11-22T02:47:36;4.10;;;3.37;;
12956;SDS011;6543;48.836;10.092;2023-11-22T02:50:03;5.10;;;3.57;;
12956;SDS011;6543;48.836;10.092;2023-11-22T02:52:30;4.10;;;3.50;;
12956;SDS011;6543;48.836;10.092;2023-11-22T02:54:57;4.20;;;3.43;;
12956;SDS011;6543;48.836;10.092;2023-11-22T02:57:24;2.97;;;2.70;;
12956;SDS011;6543;48.836;10.092;2023-11-22T02:59:52;4.60;;;3.70;;
12956;SDS011;6543;48.836;10.092;2023-11-22T03:02:19;5.50;;;4.27;;
12956;SDS011;6543;48.836;10.092;2023-11-22T03:04:46;6.73;;;4.13;;
12956;SDS011;6543;48.836;10.092;2023-11-22T03:07:13;5.27;;;3.87;;
12956;SDS011;6543;48.836;10.092;2023-11-22T03:09:40;4.93;;;4.17;;
12956;SDS011;6543;48.836;10.092;2023-11-22T03:12:09;5.47;;;4.33;;
12956;SDS011;6543;48.836;10.092;2023-11-22T03:14:38;4.40;;;4.00;;
12956;SDS011;6543;48.836;10.092;2023-11-22T03:17:06;6.10;;;4.53;;
12956;SDS011;6543;48.836;10.092;2023-11-22T03:19:33;5.60;;;3.80;;
12956;SDS011;6543;48.836;10.092;2023-11-22T03:22:00;5.67;;;4.80;;
12956;SDS011;6543;48.836;10.092;2023-11-22T03:24:28;6.67;;;5.07;;
12956;SDS011;6543;48.836;10.092;2023-11-22T03:26:54;6.73;;;5.13;;
12956;SDS011;6543;48.836;10.092;2023-11-22T03:29:23;6.20;;;4.37;;
12956;SDS011;6543;48.836;10.092;2023-11-22T03:31:50;6.53;;;4.63;;
12956;SDS011;6543;48.836;10.092;2023-11-22T03:34:19;4.43;;;3.50;;
12956;SDS011;6543;48.836;10.092;2023-11-22T03:36:46;5.33;;;4.27;;
12956;SDS011;6543;48.836;10.092;2023-11-22T03:39:14;4.10;;;3.20;;
12956;SDS011;6543;48.836;10.092;2023-11-22T03:41:41;6.03;;;4.67;;
12956;SDS011;6543;48.836;10.092;2023-11-22T03:44:08;5.83;;;4.90;;
12956;SDS011;6543;48.836;10.092;2023-11-22T03:46:35;5.67;;;4.43;;
12956;SDS011;6543;48.836;10.092;2023-11-22T03:49:02;8.73;;;4.87;;
12956;SDS011;6543;48.836;10.092;2023-11-22T03:51:30;5.60;;;4.63;;
12956;SDS011;6543;48.836;10.092;2023-11-22T03:53:57;7.87;;;4.93;;
12956;SDS011;6543;48.836;10.092;2023-11-22T03:56:23;5.17;;;4.37;;
12956;SDS011;6543;48.836;10.092;2023-11-22T03:58:50;5.97;;;4.87;;
12956;SDS011;6543;48.836;10.092;2023-11-22T04:01:17;5.63;;;3.93;;
12956;SDS011;6543;48.836;10.092;2023-11-22T04:03:45;4.57;;;4.17;;
12956;SDS011;6543;48.836;10.092;2023-11-22T04:06:13;5.47;;;4.20;;
12956;SDS011;6543;48.836;10.092;2023-11-22T04:08:41;6.23;;;4.77;;
12956;SDS011;6543;48.836;10.092;2023-11-22T04:11:09;5.73;;;4.20;;
12956;SDS011;6543;48.836;10.092;2023-11-22T04:13:36;5.27;;;4.00;;
12956;SDS011;6543;48.836;10.092;2023-11-22T04:16:04;6.07;;;4.67;;
12956;SDS011;6543;48.836;10.092;2023-11-22T04:18:33;7.57;;;4.50;;
12956;SDS011;6543;48.836;10.092;2023-11-22T04:21:00;5.87;;;5.17;;
12956;SDS011;6543;48.836;10.092;2023-11-22T04:23:29;7.63;;;5.23;;
12956;SDS011;6543;48.836;10.092;2023-11-22T04:25:57;7.87;;;4.87;;
12956;SDS011;6543;48.836;10.092;2023-11-22T04:28:24;5.47;;;4.43;;
12956;SDS011;6543;48.836;10.092;2023-11-22T04:30:51;5.87;;;3.80;;
12956;SDS011;6543;48.836;10.092;2023-11-22T04:33:18;5.87;;;4.30;;
12956;SDS011;6543;48.836;10.092;2023-11-22T04:35:45;5.83;;;4.27;;
12956;SDS011;6543;48.836;10.092;2023-11-22T04:38:12;6.03;;;4.13;;
12956;SDS011;6543;48.836;10.092;2023-11-22T04:40:38;6.03;;;4.67;;
12956;SDS011;6543;48.836;10.092;2023-11-22T04:43:08;5.23;;;4.20;;
12956;SDS011;6543;48.836;10.092;2023-11-22T04:45:35;7.43;;;4.63;;
12956;SDS011;6543;48.836;10.092;2023-11-22T04:48:02;8.13;;;5.03;;
12956;SDS011;6543;48.836;10.092;2023-11-22T04:50:29;6.63;;;4.70;;
12956;SDS011;6543;48.836;10.092;2023-11-22T04:52:56;5.53;;;4.40;;
12956;SDS011;6543;48.836;10.092;2023-11-22T04:55:23;5.70;;;4.80;;
12956;SDS011;6543;48.836;10.092;2023-11-22T04:57:50;6.23;;;4.77;;
12956;SDS011;6543;48.836;10.092;2023-11-22T05:00:19;6.27;;;4.23;;
12956;SDS011;6543;48.836;10.092;2023-11-22T05:02:47;7.10;;;4.37;;
12956;SDS011;6543;48.836;10.092;2023-11-22T05:05:14;6.73;;;4.67;;
12956;SDS011;6543;48.836;10.092;2023-11-22T05:07:41;6.13;;;4.83;;
12956;SDS011;6543;48.836;10.092;2023-11-22T05:10:09;6.03;;;4.80;;
12956;SDS011;6543;48.836;10.092;2023-11-22T05:12:36;5.50;;;4.30;;
12956;SDS011;6543;48.836;10.092;2023-11-22T05:15:04;5.07;;;3.97;;
12956;SDS011;6543;48.836;10.092;2023-11-22T05:17:32;4.03;;;3.37;;
12956;SDS011;6543;48.836;10.092;2023-11-22T05:20:00;5.43;;;3.93;;
12956;SDS011;6543;48.836;10.092;2023-11-22T05:22:26;4.43;;;3.57;;
12956;SDS011;6543;48.836;10.092;2023-11-22T05:24:53;4.63;;;3.37;;
12956;SDS011;6543;48.836;10.092;2023-11-22T05:27:21;4.73;;;3.60;;
12956;SDS011;6543;48.836;10.092;2023-11-22T05:29:47;3.80;;;3.13;;
12956;SDS011;6543;48.836;10.092;2023-11-22T05:32:14;3.27;;;2.70;;
12956;SDS011;6543;48.836;10.092;2023-11-22T05:34:43;3.50;;;3.20;;
12956;SDS011;6543;48.836;10.092;2023-11-22T05:37:10;4.40;;;2.70;;
12956;SDS011;6543;48.836;10.092;2023-11-22T05:39:36;4.80;;;3.23;;
12956;SDS011;6543;48.836;10.092;2023-11-22T05:42:03;5.77;;;3.60;;
12956;SDS011;6543;48.836;10.092;2023-11-22T05:44:32;6.10;;;2.80;;
12956;SDS011;6543;48.836;10.092;2023-11-22T05:46:58;3.57;;;2.70;;
12956;SDS011;6543;48.836;10.092;2023-11-22T05:49:25;4.27;;;3.03;;
12956;SDS011;6543;48.836;10.092;2023-11-22T05:51:53;3.73;;;2.93;;
12956;SDS011;6543;48.836;10.092;2023-11-22T05:54:20;3.40;;;2.10;;
12956;SDS011;6543;48.836;10.092;2023-11-22T05:56:47;4.00;;;3.07;;
12956;SDS011;6543;48.836;10.092;2023-11-22T05:59:13;3.47;;;3.13;;
12956;SDS011;6543;48.836;10.092;2023-11-22T06:01:40;3.87;;;3.00;;
12956;SDS011;6543;48.836;10.092;2023-11-22T06:04:07;4.37;;;3.37;;
12956;SDS011;6543;48.836;10.092;2023-11-22T06:06:34;4.73;;;3.57;;
12956;SDS011;6543;48.836;10.092;2023-11-22T06:09:03;7.80;;;4.10;;
12956;SDS011;6543;48.836;10.092;2023-11-22T06:11:32;5.17;;;3.37;;
12956;SDS011;6543;48.836;10.092;2023-11-22T06:13:59;5.07;;;3.77;;
12956;SDS011;6543;48.836;10.092;2023-11-22T06:16:25;4.30;;;3.23;;
12956;SDS011;6543;48.836;10.092;2023-11-22T06:18:52;5.53;;;3.90;;
12956;SDS011;6543;48.836;10.092;2023-11-22T06:21:19;5.73;;;3.60;;
12956;SDS011;6543;48.836;10.092;2023-11-22T06:23:46;4.50;;;3.80;;
12956;SDS011;6543;48.836;10.092;2023-11-22T06:26:14;5.70;;;3.87;;
12956;SDS011;6543;48.836;10.092;2023-11-22T06:28:40;6.63;;;2.93;;
12956;SDS011;6543;48.836;10.092;2023-11-22T06:31:13;7.87;;;3.53;;
12956;SDS011;6543;48.836;10.092;2023-11-22T06:33:40;7.00;;;3.37;;
12956;SDS011;6543;48.836;10.092;2023-11-22T06:36:07;4.10;;;3.37;;
12956;SDS011;6543;48.836;10.092;2023-11-22T06:38:35;4.77;;;3.40;;
12956;SDS011;6543;48.836;10.092;2023-11-22T06:41:01;6.07;;;3.20;;
12956;SDS011;6543;48.836;10.092;2023-11-22T06:43:29;6.23;;;3.93;;
12956;SDS011;6543;48.836;10.092;2023-11-22T06:45:56;5.00;;;3.77;;
12956;SDS011;6543;48.836;10.092;2023-11-22T06:48:23;5.33;;;3.80;;
12956;SDS011;6543;48.836;10.092;2023-11-22T06:50:50;4.40;;;3.73;;
12956;SDS011;6543;48.836;10.092;2023-11-22T06:53:16;4.97;;;3.80;;
12956;SDS011;6543;48.836;10.092;2023-11-22T06:55:44;7.60;;;4.20;;
12956;SDS011;6543;48.836;10.092;2023-11-22T06:58:11;8.88;;;5.07;;
12956;SDS011;6543;48.836;10.092;2023-11-22T07:00:40;6.03;;;4.57;;
12956;SDS011;6543;48.836;10.092;2023-11-22T07:03:07;5.17;;;4.20;;
12956;SDS011;6543;48.836;10.092;2023-11-22T07:05:34;6.90;;;4.50;;
12956;SDS011;6543;48.836;10.092;2023-11-22T07:08:00;7.07;;;4.73;;
12956;SDS011;6543;48.836;10.092;2023-11-22T07:10:28;6.43;;;4.10;;
12956;SDS011;6543;48.836;10.092;2023-11-22T07:12:59;5.73;;;4.10;;
12956;SDS011;6543;48.836;10.092;2023-11-22T07:15:26;5.53;;;4.27;;
12956;SDS011;6543;48.836;10.092;2023-11-22T07:17:55;4.33;;;3.57;;
12956;SDS011;6543;48.836;10.092;2023-11-22T07:20:22;6.30;;;3.70;;
12956;SDS011;6543;48.836;10.092;2023-11-22T07:22:49;8.00;;;4.50;;
12956;SDS011;6543;48.836;10.092;2023-11-22T07:25:20;5.97;;;2.93;;
12956;SDS011;6543;48.836;10.092;2023-11-22T07:27:50;6.70;;;3.23;;
12956;SDS011;6543;48.836;10.092;2023-11-22T07:30:18;4.93;;;2.50;;
12956;SDS011;6543;48.836;10.092;2023-11-22T07:32:47;6.57;;;2.47;;
12956;SDS011;6543;48.836;10.092;2023-11-22T07:35:16;3.53;;;2.70;;
12956;SDS011;6543;48.836;10.092;2023-11-22T07:37:45;3.60;;;2.70;;
12956;SDS011;6543;48.836;10.092;2023-11-22T07:40:12;4.03;;;2.77;;
12956;SDS011;6543;48.836;10.092;2023-11-22T07:42:40;4.97;;;3.20;;
12956;SDS011;6543;48.836;10.092;2023-11-22T07:45:07;8.13;;;2.90;;
12956;SDS011;6543;48.836;10.092;2023-11-22T07:47:36;4.97;;;2.70;;
12956;SDS011;6543;48.836;10.092;2023-11-22T07:50:05;3.40;;;3.10;;
12956;SDS011;6543;48.836;10.092;2023-11-22T07:52:37;5.17;;;3.30;;
12956;SDS011;6543;48.836;10.092;2023-11-22T07:55:05;4.63;;;3.33;;
12956;SDS011;6543;48.836;10.092;2023-11-22T07:57:33;6.53;;;3.57;;
12956;SDS011;6543;48.836;10.092;2023-11-22T08:00:00;6.43;;;3.27;;
12956;SDS011;6543;48.836;10.092;2023-11-22T08:02:30;3.40;;;2.90;;
12956;SDS011;6543;48.836;10.092;2023-11-22T08:04:58;4.50;;;3.20;;
12956;SDS011;6543;48.836;10.092;2023-11-22T08:07:26;6.00;;;3.23;;
12956;SDS011;6543;48.836;10.092;2023-11-22T08:09:55;3.73;;;3.10;;
12956;SDS011;6543;48.836;10.092;2023-11-22T08:12:22;3.77;;;3.07;;
12956;SDS011;6543;48.836;10.092;2023-11-22T08:14:49;3.43;;;3.10;;
12956;SDS011;6543;48.836;10.092;2023-11-22T08:17:17;5.17;;;3.63;;
12956;SDS011;6543;48.836;10.092;2023-11-22T08:19:44;3.27;;;2.97;;
12956;SDS011;6543;48.836;10.092;2023-11-22T08:22:13;3.73;;;2.43;;
12956;SDS011;6543;48.836;10.092;2023-11-22T08:24:39;3.37;;;3.00;;
12956;SDS011;6543;48.836;10.092;2023-11-22T08:27:07;2.30;;;2.10;;
12956;SDS011;6543;48.836;10.092;2023-11-22T08:29:34;3.17;;;2.87;;
12956;SDS011;6543;48.836;10.092;2023-11-22T08:32:02;3.07;;;2.37;;
12956;SDS011;6543;48.836;10.092;2023-11-22T08:34:30;4.67;;;3.70;;
12956;SDS011;6543;48.836;10.092;2023-11-22T08:36:57;6.83;;;4.27;;
12956;SDS011;6543;48.836;10.092;2023-11-22T08:39:24;4.80;;;4.07;;
12956;SDS011;6543;48.836;10.092;2023-11-22T08:41:51;4.00;;;3.27;;
12956;SDS011;6543;48.836;10.092;2023-11-22T08:44:19;3.57;;;2.93;;
12956;SDS011;6543;48.836;10.092;2023-11-22T08:46:46;6.13;;;4.00;;
12956;SDS011;6543;48.836;10.092;2023-11-22T08:49:13;5.37;;;3.73;;
12956;SDS011;6543;48.836;10.092;2023-11-22T08:51:40;5.53;;;4.17;;
12956;SDS011;6543;48.836;10.092;2023-11-22T08:54:07;6.20;;;4.03;;
12956;SDS011;6543;48.836;10.092;2023-11-22T08:56:34;5.80;;;4.10;;
12956;SDS011;6543;48.836;10.092;2023-11-22T08:59:01;5.30;;;4.33;;
12956;SDS011;6543;48.836;10.092;2023-11-22T09:01:31;6.50;;;4.53;;
12956;SDS011;6543;48.836;10.092;2023-11-22T09:03:58;6.17;;;4.00;;
12956;SDS011;6543;48.836;10.092;2023-11-22T09:06:25;9.27;;;4.60;;
12956;SDS011;6543;48.836;10.092;2023-11-22T09:08:54;6.13;;;4.10;;
12956;SDS011;6543;48.836;10.092;2023-11-22T09:11:21;9.07;;;4.63;;
12956;SDS011;6543;48.836;10.092;2023-11-22T09:13:49;6.00;;;4.60;;
12956;SDS011;6543;48.836;10.092;2023-11-22T09:16:16;6.20;;;4.13;;
12956;SDS011;6543;48.836;10.092;2023-11-22T09:18:45;5.47;;;4.23;;
12956;SDS011;6543;48.836;10.092;2023-11-22T09:21:12;7.70;;;4.37;;
12956;SDS011;6543;48.836;10.092;2023-11-22T09:23:39;9.83;;;4.10;;
12956;SDS011;6543;48.836;10.092;2023-11-22T09:26:06;7.13;;;5.37;;
12956;SDS011;6543;48.836;10.092;2023-11-22T09:28:33;6.00;;;4.27;;
12956;SDS011;6543;48.836;10.092;2023-11-22T09:30:59;6.20;;;4.87;;
12956;SDS011;6543;48.836;10.092;2023-11-22T09:33:31;5.87;;;4.30;;
12956;SDS011;6543;48.836;10.092;2023-11-22T09:35:59;5.77;;;4.20;;
12956;SDS011;6543;48.836;10.092;2023-11-22T09:38:29;6.03;;;3.77;;
12956;SDS011;6543;48.836;10.092;2023-11-22T09:40:56;5.23;;;4.50;;
12956;SDS011;6543;48.836;10.092;2023-11-22T09:43:24;4.70;;;3.60;;
12956;SDS011;6543;48.836;10.092;2023-11-22T09:45:54;5.10;;;4.47;;
12956;SDS011;6543;48.836;10.092;2023-11-22T09:48:23;3.60;;;3.20;;
12956;SDS011;6543;48.836;10.092;2023-11-22T09:50:54;3.07;;;2.70;;
12956;SDS011;6543;48.836;10.092;2023-11-22T09:53:30;3.20;;;2.90;;
12956;SDS011;6543;48.836;10.092;2023-11-22T09:55:58;4.93;;;3.43;;
12956;SDS011;6543;48.836;10.092;2023-11-22T09:58:26;3.80;;;3.40;;
12956;SDS011;6543;48.836;10.092;2023-11-22T10:00:56;3.50;;;2.77;;
12956;SDS011;6543;48.836;10.092;2023-11-22T10:03:23;4.87;;;3.67;;
12956;SDS011;6543;48.836;10.092;2023-11-22T10:05:52;3.53;;;2.87;;
12956;SDS011;6543;48.836;10.092;2023-11-22T10:08:19;6.30;;;3.40;;
12956;SDS011;6543;48.836;10.092;2023-11-22T10:10:49;4.73;;;3.23;;
12956;SDS011;6543;48.836;10.092;2023-11-22T10:13:19;3.40;;;2.90;;
12956;SDS011;6543;48.836;10.092;2023-11-22T10:15:49;4.43;;;3.50;;
12956;SDS011;6543;48.836;10.092;2023-11-22T10:18:17;4.33;;;3.50;;
12956;SDS011;6543;48.836;10.092;2023-11-22T10:20:46;5.67;;;3.43;;
12956;SDS011;6543;48.836;10.092;2023-11-22T10:23:15;3.67;;;2.97;;
12956;SDS011;6543;48.836;10.092;2023-11-22T10:25:52;4.30;;;3.60;;
12956;SDS011;6543;48.836;10.092;2023-11-22T10:28:21;5.13;;;3.90;;
12956;SDS011;6543;48.836;10.092;2023-11-22T10:30:50;6.13;;;4.03;;
12956;SDS011;6543;48.836;10.092;2023-11-22T10:33:17;5.63;;;3.77;;
12956;SDS011;6543;48.836;10.092;2023-11-22T10:35:48;5.87;;;3.77;;
12956;SDS011;6543;48.836;10.092;2023-11-22T10:38:16;8.13;;;3.83;;
12956;SDS011;6543;48.836;10.092;2023-11-22T10:40:44;4.00;;;3.47;;
12956;SDS011;6543;48.836;10.092;2023-11-22T10:43:14;4.57;;;4.07;;
12956;SDS011;6543;48.836;10.092;2023-11-22T10:45:42;5.30;;;3.37;;
12956;SDS011;6543;48.836;10.092;2023-11-22T10:48:13;4.73;;;3.70;;
12956;SDS011;6543;48.836;10.092;2023-11-22T10:50:42;6.30;;;3.63;;
12956;SDS011;6543;48.836;10.092;2023-11-22T10:53:10;10.33;;;4.63;;
12956;SDS011;6543;48.836;10.092;2023-11-22T10:55:41;7.57;;;4.00;;
12956;SDS011;6543;48.836;10.092;2023-11-22T10:58:11;5.97;;;3.97;;
12956;SDS011;6543;48.836;10.092;2023-11-22T11:00:42;4.17;;;3.77;;
12956;SDS011;6543;48.836;10.092;2023-11-22T11:03:11;5.70;;;3.30;;
12956;SDS011;6543;48.836;10.092;2023-11-22T11:05:42;6.47;;;4.70;;
12956;SDS011;6543;48.836;10.092;2023-11-22T11:08:17;6.30;;;4.30;;
12956;SDS011;6543;48.836;10.092;2023-11-22T11:10:46;5.37;;;4.43;;
12956;SDS011;6543;48.836;10.092;2023-11-22T11:13:15;4.40;;;3.80;;
12956;SDS011;6543;48.836;10.092;2023-11-22T11:15:43;7.10;;;4.13;;
12956;SDS011;6543;48.836;10.092;2023-11-22T11:18:13;6.17;;;4.67;;
12956;SDS011;6543;48.836;10.092;2023-11-22T11:20:44;7.03;;;5.20;;
12956;SDS011;6543;48.836;10.092;2023-11-22T11:23:15;6.53;;;4.70;;
12956;SDS011;6543;48.836;10.092;2023-11-22T11:25:58;5.83;;;4.77;;
12956;SDS011;6543;48.836;10.092;2023-11-22T11:31:58;6.97;;;5.13;;
12956;SDS011;6543;48.836;10.092;2023-11-22T11:34:26;9.03;;;5.67;;
12956;SDS011;6543;48.836;10.092;2023-11-22T11:36:54;8.00;;;5.67;;
12956;SDS011;6543;48.836;10.092;2023-11-22T11:39:25;8.00;;;5.50;;
12956;SDS011;6543;48.836;10.092;2023-11-22T11:44:50;5.80;;;4.60;;
12956;SDS011;6543;48.836;10.092;2023-11-22T11:47:29;6.30;;;4.70;;
12956;SDS011;6543;48.836;10.092;2023-11-22T11:49:58;8.33;;;5.47;;
12956;SDS011;6543;48.836;10.092;2023-11-22T11:52:26;8.57;;;5.33;;
12956;SDS011;6543;48.836;10.092;2023-11-22T11:55:00;8.83;;;5.67;;
12956;SDS011;6543;48.836;10.092;2023-11-22T11:57:30;7.60;;;5.63;;
12956;SDS011;6543;48.836;10.092;2023-11-22T11:59:57;8.60;;;5.50;;
12956;SDS011;6543;48.836;10.092;2023-11-22T12:02:25;12.47;;;5.73;;
12956;SDS011;6543;48.836;10.092;2023-11-22T12:04:56;8.47;;;5.53;;
12956;SDS011;6543;48.836;10.092;2023-11-22T12:07:26;6.20;;;5.03;;
12956;SDS011;6543;48.836;10.092;2023-11-22T12:09:55;8.73;;;5.90;;
12956;SDS011;6543;48.836;10.092;2023-11-22T12:12:24;7.60;;;5.80;;
12956;SDS011;6543;48.836;10.092;2023-11-22T12:15:06;8.80;;;6.50;;
12956;SDS011;6543;48.836;10.092;2023-11-22T12:17:34;9.40;;;5.33;;
12956;SDS011;6543;48.836;10.092;2023-11-22T12:20:11;7.60;;;5.33;;
12956;SDS011;6543;48.836;10.092;2023-11-22T12:22:42;7.97;;;5.53;;
12956;SDS011;6543;48.836;10.092;2023-11-22T12:25:11;8.50;;;4.90;;
12956;SDS011;6543;48.836;10.092;2023-11-22T12:27:41;9.37;;;6.03;;
12956;SDS011;6543;48.836;10.092;2023-11-22T12:30:09;9.00;;;6.13;;
12956;SDS011;6543;48.836;10.092;2023-11-22T12:32:53;10.17;;;5.10;;
12956;SDS011;6543;48.836;10.092;2023-11-22T12:35:36;7.10;;;5.40;;
12956;SDS011;6543;48.836;10.092;2023-11-22T12:38:04;9.23;;;6.47;;
12956;SDS011;6543;48.836;10.092;2023-11-22T12:40:32;10.47;;;6.17;;
12956;SDS011;6543;48.836;10.092;2023-11-22T12:43:13;8.73;;;6.43;;
12956;SDS011;6543;48.836;10.092;2023-11-22T12:45:41;9.10;;;6.10;;
12956;SDS011;6543;48.836;10.092;2023-11-22T12:48:20;9.07;;;6.93;;
12956;SDS011;6543;48.836;10.092;2023-11-22T12:50:50;9.07;;;6.73;;
12956;SDS011;6543;48.836;10.092;2023-11-22T12:53:18;8.67;;;6.27;;
12956;SDS011;6543;48.836;10.092;2023-11-22T12:55:47;7.57;;;5.80;;
12956;SDS011;6543;48.836;10.092;2023-11-22T12:58:15;9.23;;;6.20;;
12956;SDS011;6543;48.836;10.092;2023-11-22T13:00:44;9.53;;;5.77;;
12956;SDS011;6543;48.836;10.092;2023-11-22T13:03:11;9.37;;;5.80;;
12956;SDS011;6543;48.836;10.092;2023-11-22T13:05:41;10.70;;;6.97;;
12956;SDS011;6543;48.836;10.092;2023-11-22T13:08:13;8.43;;;6.30;;
12956;SDS011;6543;48.836;10.092;2023-11-22T13:10:43;8.03;;;5.70;;
12956;SDS011;6543;48.836;10.092;2023-11-22T13:13:19;9.27;;;5.83;;
12956;SDS011;6543;48.836;10.092;2023-11-22T13:15:46;6.73;;;4.93;;
12956;SDS011;6543;48.836;10.092;2023-11-22T13:18:15;9.70;;;6.23;;
12956;SDS011;6543;48.836;10.092;2023-11-22T13:20:44;9.83;;;6.83;;
12956;SDS011;6543;48.836;10.092;2023-11-22T13:23:14;16.10;;;6.50;;
12956;SDS011;6543;48.836;10.092;2023-11-22T13:25:42;6.87;;;5.00;;
12956;SDS011;6543;48.836;10.092;2023-11-22T13:28:11;10.23;;;7.43;;
12956;SDS011;6543;48.836;10.092;2023-11-22T13:30:40;11.70;;;7.57;;
12956;SDS011;6543;48.836;10.092;2023-11-22T13:33:21;9.10;;;6.80;;
12956;SDS011;6543;48.836;10.092;2023-11-22T13:35:48;9.87;;;6.97;;
12956;SDS011;6543;48.836;10.092;2023-11-22T13:38:20;9.73;;;6.30;;
12956;SDS011;6543;48.836;10.092;2023-11-22T13:40:49;9.37;;;7.23;;
12956;SDS011;6543;48.836;10.092;2023-11-22T13:43:16;10.97;;;6.70;;
12956;SDS011;6543;48.836;10.092;2023-11-22T13:45:45;12.60;;;6.10;;
12956;SDS011;6543;48.836;10.092;2023-11-22T13:48:12;8.53;;;5.77;;
12956;SDS011;6543;48.836;10.092;2023-11-22T13:50:39;7.63;;;5.60;;
12956;SDS011;6543;48.836;10.092;2023-11-22T13:53:06;11.13;;;7.23;;
12956;SDS011;6543;48.836;10.092;2023-11-22T13:55:38;9.73;;;6.60;;
12956;SDS011;6543;48.836;10.092;2023-11-22T13:58:04;10.67;;;7.00;;
12956;SDS011;6543;48.836;10.092;2023-11-22T14:00:33;8.93;;;6.47;;
12956;SDS011;6543;48.836;10.092;2023-11-22T14:03:01;9.10;;;6.70;;
12956;SDS011;6543;48.836;10.092;2023-11-22T14:05:36;9.47;;;5.90;;
12956;SDS011;6543;48.836;10.092;2023-11-22T14:08:06;10.63;;;6.60;;
12956;SDS011;6543;48.836;10.092;2023-11-22T14:10:33;8.33;;;6.03;;
12956;SDS011;6543;48.836;10.092;2023-11-22T14:13:05;9.50;;;6.10;;
12956;SDS011;6543;48.836;10.092;2023-11-22T14:15:33;10.70;;;5.93;;
12956;SDS011;6543;48.836;10.092;2023-11-22T14:18:00;9.27;;;6.20;;
12956;SDS011;6543;48.836;10.092;2023-11-22T14:20:28;9.80;;;6.83;;
12956;SDS011;6543;48.836;10.092;2023-11-22T14:22:55;9.57;;;5.83;;
12956;SDS011;6543;48.836;10.092;2023-11-22T14:25:22;8.13;;;5.30;;
12956;SDS011;6543;48.836;10.092;2023-11-22T14:27:50;10.30;;;6.17;;
12956;SDS011;6543;48.836;10.092;2023-11-22T14:30:25;9.37;;;6.20;;
12956;SDS011;6543;48.836;10.092;2023-11-22T14:32:54;8.60;;;5.87;;
12956;SDS011;6543;48.836;10.092;2023-11-22T14:35:23;12.93;;;7.00;;
12956;SDS011;6543;48.836;10.092;2023-11-22T14:37:50;7.73;;;5.67;;
12956;SDS011;6543;48.836;10.092;2023-11-22T14:40:18;9.77;;;6.23;;
12956;SDS011;6543;48.836;10.092;2023-11-22T14:42:45;7.33;;;5.10;;
12956;SDS011;6543;48.836;10.092;2023-11-22T14:45:15;8.13;;;5.73;;
12956;SDS011;6543;48.836;10.092;2023-11-22T14:47:54;11.87;;;7.37;;
12956;SDS011;6543;48.836;10.092;2023-11-22T14:50:23;10.63;;;7.13;;
12956;SDS011;6543;48.836;10.092;2023-11-22T14:52:53;9.47;;;6.23;;
12956;SDS011;6543;48.836;10.092;2023-11-22T14:55:20;9.30;;;6.33;;
12956;SDS011;6543;48.836;10.092;2023-11-22T14:57:51;9.63;;;6.27;;
12956;SDS011;6543;48.836;10.092;2023-11-22T15:00:22;9.27;;;6.10;;